Aeroporto :
LOGIN :

Iscrizione | Disclaimer

   EN    FR    IT 

 










Sommario :    VFR   VFR Marginale   IFR   IFR Intensivo   IFR Molto Intensivo
Visibilità : 
Base nubi : 
>= 8 km
>= 3000ft
5 / 8 km
1000 / 3000 ft
1500m / 5 km
500 / 1000 ft
800 / 1500m
200 / 500 ft
< 800m
< 200 ft
Simboli :   Temporali  Nebbia  Neve Forte  Precipitazioni Forti  Vento > 20 kt
SIGMETs :   Varie  Temporali  Ghiacco  Turbolenza  Onda orograficha  Ceneri Vulcaniche







- Altitudine del aeroporto : 187 ft


ETNW - Wunstorf AB

ULTIMO METAR :
  • 250940Z 28016KT 9000 -SHRA FEW009 BKN012CB BKN020 05/03 Q1015 GRN BLU TEMPO GRN

METARs OBSOLETI :
  • 250920Z 28014KT 9999 -SHRA FEW009 BKN012CB BKN020 05/02 Q1015 GRN BLU TEMPO GRN
  • 250910Z 28017KT 9999 -SHRA FEW009 BKN012CB BKN018 05/02 Q1015 GRN BLU TEMPO GRN
  • 250820Z 26011KT 9999 FEW009 SCT012CB BKN015 05/03 Q1014 WHT BLU TEMPO GRN
  • 250720Z 27012KT 9000 -SHRA SCT010 BKN012CB BKN040 04/02 Q1014 GRN BLU TEMPO GRN
  • 250705Z 27012G23KT 7000 -SHRA FEW010 BKN012CB BKN040 05/02 Q1015 GRN BLU TEMPO GRN

TAF TAF ETNW
Valido dal 25 a 06 ore il 26 a 06 ore UTC


250525Z 2506/2606 29015G25KT 9999 NSW SCT010 BKN040
TEMPO 2506/2517 27015G28KT 4000 SHRAGS SCT005 BKN012CB
PROB30 2506/2517 29015G30KT 3000 TSRA BKN005 BKN010CB
BECMG 2517/2519 30010KT 9999 NSW SCT040
PROB30 2600/2606 31007KT 5000 MIFG FEW040 BY ETGL
Nessun NOTAM noto per questo aeroporto.



MetMap, La meteo Aeronautica in un colpo d'occhio ! - Copyright ORBIFLY Dicembre 2007 - Disclaimer

ORBIFLY MET'MAP TEAM :

Programmazione e sviluppo : Alexandra Zaïnal
Concezione e sviluppo : Baudouin d'Aumeries
Co-Programmazione e sviluppo : Marc-Olivier Méhu
Supporto tecnico e logistico : Manuel Goepfert
Aiuto per la traduzione : Arnaldo La Scala

Contatto : metmap@orbifly.com




FONTI E CREDITI :

   NOAA